Ship Status Report: callsign AMOUK35

sailwx.info

Track history (hours):
 
Tides and Currents Weather Stations Pressure Air Temp Water Temp Dewpoint Dewpoint Depression Visibility Wind Speed Wind Dir Waves Ship Positions

Callsign AMOUK35 (name unknown)

Last reported at 2015-Jul-28 18:00 UTC. Time now 2015-Jul-28 21:50 UTC.
Position N 56°24' W 005°30'.

Barometer 1006.0 mb
Air temperature 11.6 ° C
Dewpoint 9.0 ° C

Date/timePositionNaut miles runAvg speedWind from/ knotsBaromVisibWave heightAir tempDewpointWater temp
2015-Jul-28 18:00N 56°24' W 005°30'0 0.0 1006.0 11.6 9.0
2015-Jul-28 16:00N 56°24' W 005°30'0 0.0 1005.6 12.8 9.5
2015-Jul-28 15:00N 56°24' W 005°30'0 0.0 1005.5 13.3 9.8
2015-Jul-28 11:00N 56°24' W 005°30'0 0.0 1004.9 11.6 9.3
2015-Jul-28 09:00N 56°24' W 005°30'0 0.0 1004.6 11.0 9.6
2015-Jul-28 07:00N 56°24' W 005°30'0 0.0 1003.9 11.1 9.7
2015-Jul-28 04:00N 56°24' W 005°30'0 0.0 1003.1 10.4 9.3
2015-Jul-28 03:00N 56°24' W 005°30'0 0.0 1002.9 11.210.1
2015-Jul-28 02:00N 56°24' W 005°30'0 0.0 1002.9 11.310.0
2015-Jul-28 01:00N 56°24' W 005°30'0 0.0 1002.8 11.410.0
2015-Jul-27 20:00N 56°24' W 005°30'0 0.0 1001.9 13.610.6
2015-Jul-27 17:00N 56°24' W 005°30'0 0.0 1001.0 13.4 9.5
2015-Jul-27 14:00N 56°24' W 005°30'0 0.0 1000.6 13.1 8.5
2015-Jul-27 12:00N 56°24' W 005°30'0 0.0 1000.1 13.3 7.7
2015-Jul-27 08:00N 56°24' W 005°30'0 0.0 999.0 11.5 7.5
2015-Jul-27 05:00N 56°24' W 005°30'0 0.0 997.9 11.2 7.6
2015-Jul-27 03:00N 56°24' W 005°30'0 0.0 997.2 12.0 8.9
2015-Jul-26 23:00N 56°24' W 005°30'0 0.0 997.4 11.5 8.9
2015-Jul-26 22:00N 56°24' W 005°30'0 0.0 997.6 11.7 8.5
2015-Jul-26 21:00N 56°24' W 005°30'0 0.0 997.6 11.8 8.3
2015-Jul-26 20:00N 56°24' W 005°30'0 0.0 998.1 12.1 9.0
2015-Jul-26 19:00N 56°24' W 005°30'0 0.0 998.5 12.3 9.4
2015-Jul-26 18:00N 56°24' W 005°30'0 0.0 998.6 13.2 9.0
2015-Jul-26 17:00N 56°24' W 005°30'0 0.0 998.7 13.8 9.3
2015-Jul-26 15:00N 56°24' W 005°30'0 0.0 999.4 13.6 8.8
2015-Jul-26 14:00N 56°24' W 005°30'0 0.0 1000.2 14.9 7.5
2015-Jul-26 13:00N 56°24' W 005°30'0 0.0 1001.3 15.2 7.0
2015-Jul-26 12:00N 56°24' W 005°30'0 0.0 1002.5 14.7 7.0
2015-Jul-26 11:00N 56°24' W 005°30'0 0.0 1003.1 14.4 7.0
2015-Jul-26 10:00N 56°24' W 005°30'9 8.9 1003.6 13.5 7.3
2015-Jul-26 09:00N 56°30' W 005°42'15 7.3 1004.2 13.2 7.4
2015-Jul-26 07:00N 56°36' W 006°06'0 0.0 1006.4 11.6 8.2
2015-Jul-26 06:00N 56°36' W 006°06'0 0.0 1007.5 11.2 8.3
2015-Jul-26 05:00N 56°36' W 006°06'0 0.0 1008.2 10.2 8.4
2015-Jul-26 04:00N 56°36' W 006°06'0 0.0 1008.8 9.3 7.6
2015-Jul-26 03:00N 56°36' W 006°06'0 0.0 1009.6 9.1 7.4
2015-Jul-26 02:00N 56°36' W 006°06'0 0.0 1010.5 9.7 7.9
2015-Jul-26 01:00N 56°36' W 006°06'0 0.0 1011.3 10.2 8.1
2015-Jul-25 23:00N 56°36' W 006°06'0 0.0 1013.0 11.0 8.7
2015-Jul-25 22:00N 56°36' W 006°06'29 7.3 1013.6 11.9 8.7
2015-Jul-25 18:00N 56°54' W 006°48'1211.5 1014.6 14.0 8.6
2015-Jul-25 17:00N 57°00' W 007°06'32 6.3 1015.0 15.7 9.7
2015-Jul-25 12:00N 57°18' W 007°54'6 6.0 1015.4 12.1 8.7
2015-Jul-25 11:00N 57°24' W 007°54'1212.4 1015.4 12.0 9.0
2015-Jul-25 10:00N 57°36' W 007°48'1212.4 1015.4 11.8 8.6
2015-Jul-25 09:00N 57°48' W 007°42'9 8.8 1015.2 11.6 8.8
2015-Jul-25 08:00N 57°54' W 007°30'7 6.8 1015.0 11.5 9.1
2015-Jul-25 07:00N 58°00' W 007°24'1413.6 1014.9 11.3 8.8
2015-Jul-25 06:00N 58°12' W 007°12'3110.3 1014.8 11.6 8.0
2015-Jul-25 03:00N 58°30' W 006°24'5010.1 1014.2 11.3 7.9
2015-Jul-24 22:00N 59°00' W 005°06'2211.0 1013.8 11.2 7.7
2015-Jul-24 20:00N 59°12' W 004°30'135 5.2 1013.0 11.7 7.9
2015-Jul-23 18:00N 60°36' W 001°00'0 0.0 1001.6 11.2 9.3
2015-Jul-23 16:00N 60°36' W 001°00'0 0.0 1003.0 11.5 9.3
2015-Jul-23 15:00N 60°36' W 001°00'0 0.0 1003.8 10.9 9.1
2015-Jul-23 14:00N 60°36' W 001°00'0 0.0 1003.9 11.6 9.0
2015-Jul-23 13:00N 60°36' W 001°00'18 9.1 1004.1 12.0 9.3
2015-Jul-23 11:00N 60°18' W 001°06'6 6.0 1004.8 11.5 9.2
2015-Jul-23 10:00N 60°12' W 001°06'0 0.0 1005.2 11.6 9.1
2015-Jul-23 09:00N 60°12' W 001°06'7 2.2 1004.9 12.5 9.2
2015-Jul-23 06:00N 60°06' W 001°00'13 6.7 1005.7 11.3 9.0
2015-Jul-23 04:00N 59°54' W 001°12'22 7.2 1006.1 11.1 9.8
2015-Jul-23 01:00N 59°42' W 001°48'41 8.2 1006.8 11.0 9.7
2015-Jul-22 20:00N 59°18' W 002°54'0 0.0 1007.7 11.7 9.1
2015-Jul-22 19:00N 59°18' W 002°54'9 2.3 1008.0 13.8 9.2
2015-Jul-22 15:00N 59°18' W 003°12'1313.5 1008.2 13.8 9.3
2015-Jul-22 14:00N 59°06' W 003°24'12 4.1 1007.9 13.5 8.8
2015-Jul-22 11:00N 58°54' W 003°30'1212.0 1008.3 13.6 9.4
2015-Jul-22 10:00N 58°42' W 003°30'6 1.5 1008.0 13.1 7.7
2015-Jul-22 06:00N 58°36' W 003°30'0 0.0 1008.1 9.7 7.0
2015-Jul-22 03:00N 58°36' W 003°30'0 0.0 1007.6 6.5 4.8
2015-Jul-22 00:00N 58°36' W 003°30'0 0.0 1006.8 9.3 7.0
2015-Jul-21 23:00N 58°36' W 003°30'0 0.0 1006.4 10.9 8.4
2015-Jul-21 22:00N 58°36' W 003°30'0 0.0 1006.0 11.1 8.5
2015-Jul-21 20:00N 58°36' W 003°30'30 7.5 1005.3 11.8 8.9
2015-Jul-21 16:00N 59°06' W 003°24'1111.0 1000.2 11.610.9
2015-Jul-21 15:00N 59°12' W 003°06'9 9.2 999.4 11.910.8
2015-Jul-21 14:00N 59°12' W 002°48'9 2.9 999.4 12.811.2
2015-Jul-21 11:00N 59°18' W 002°36'3 3.1 998.1 12.811.4
2015-Jul-21 10:00N 59°18' W 002°30'9 4.3 998.0 12.511.4
2015-Jul-21 08:00N 59°12' W 002°42'15 5.0 997.3 11.410.8
2015-Jul-21 05:00N 59°00' W 003°00'0 0.0 996.4 9.7 9.0
2015-Jul-21 02:00N 59°00' W 003°00'0 0.0 996.3 11.610.8
2015-Jul-21 01:00N 59°00' W 003°00'0 0.0 996.6 11.410.6
2015-Jul-21 00:00N 59°00' W 003°00'0 0.0 997.0 11.410.5
2015-Jul-20 23:00N 59°00' W 003°00'0 0.0 997.8 11.410.5
2015-Jul-20 21:00N 59°00' W 003°00'0 0.0 999.3 11.710.6
2015-Jul-20 20:00N 59°00' W 003°00'0 0.0 1000.1 11.810.6
2015-Jul-20 19:00N 59°00' W 003°00'0 0.0 1001.1 11.810.3
2015-Jul-20 18:00N 59°00' W 003°00'0 0.0 1001.9 11.810.4
2015-Jul-20 17:00N 59°00' W 003°00'0 0.0 1002.8 11.910.3
2015-Jul-20 16:00N 59°00' W 003°00'0 0.0 1003.8 11.510.0
2015-Jul-20 15:00N 59°00' W 003°00'0 0.0 1004.8 11.7 9.7
2015-Jul-20 14:00N 59°00' W 003°00'6 3.0 1005.5 11.5 9.0
2015-Jul-20 12:00N 59°06' W 003°00'0 0.0 1006.5 10.4 7.9
2015-Jul-20 11:00N 59°06' W 003°00'6 6.0 1007.2 11.1 6.9
2015-Jul-20 10:00N 59°00' W 003°00'0 0.0 1007.9 11.5 7.4
2015-Jul-20 09:00N 59°00' W 003°00'0 0.0 1008.0 11.0 6.4
2015-Jul-20 08:00N 59°00' W 003°00'0 0.0 1008.6 11.2 5.3
2015-Jul-20 07:00N 59°00' W 003°00'0 0.0 1008.7 10.7 7.2
2015-Jul-20 06:00N 59°00' W 003°00'0 0.0 1008.9 10.0 7.7
2015-Jul-20 05:00N 59°00' W 003°00'0 0.0 1009.0 8.6 6.6
2015-Jul-20 03:00N 59°00' W 003°00'0 0.0 1008.9 8.8 7.0
2015-Jul-20 02:00N 59°00' W 003°00'0 0.0 1009.1 8.9 6.9
2015-Jul-20 00:00N 59°00' W 003°00'0 0.0 1009.1 8.7 6.4
2015-Jul-19 22:00N 59°00' W 003°00'0 0.0 1008.9 10.3 7.4
2015-Jul-19 19:00N 59°00' W 003°00'0 0.0 1008.1 13.6 7.7
2015-Jul-19 18:00N 59°00' W 003°00'9 1.7 1007.7 12.0 7.5
2015-Jul-19 13:00N 59°06' W 002°48'6 6.2 1005.8 10.7 8.4
2015-Jul-19 12:00N 59°06' W 002°36'6 2.0 1005.1 12.6 9.4
2015-Jul-19 09:00N 59°12' W 002°36'1111.0 1004.4 10.8 9.4
2015-Jul-19 08:00N 59°06' W 002°54'7 2.2 1003.9 10.7 9.2
2015-Jul-19 05:00N 59°00' W 003°00'0 0.0 1004.0 10.6 9.3
2015-Jul-19 04:00N 59°00' W 003°00'0 0.0 1003.5 11.0 9.3
2015-Jul-19 01:00N 59°00' W 003°00'0 0.0 1003.9 10.9 9.6
2015-Jul-19 00:00N 59°00' W 003°00'0 0.0 1003.7 11.1 9.8
2015-Jul-18 20:00N 59°00' W 003°00'   1001.6 11.2 9.3
Track history (hours):
 
Tides and Currents Weather Stations Pressure Air Temp Water Temp Dewpoint Dewpoint Depression Visibility Wind Speed Wind Dir Waves Ship Positions

Callsign AMOUK35 (name unknown)

Last reported at 2015-Jul-28 18:00 UTC. Time now 2015-Jul-28 21:50 UTC.
Position N 56°24' W 005°30'.

Barometer 1006.0 mb
Air temperature 11.6 ° C
Dewpoint 9.0 ° C

Date/timePositionNaut miles runAvg speedWind from/ knotsBaromVisibWave heightAir tempDewpointWater temp
2015-Jul-28 18:00N 56°24' W 005°30'0 0.0 1006.0 11.6 9.0
2015-Jul-28 16:00N 56°24' W 005°30'0 0.0 1005.6 12.8 9.5
2015-Jul-28 15:00N 56°24' W 005°30'0 0.0 1005.5 13.3 9.8
2015-Jul-28 11:00N 56°24' W 005°30'0 0.0 1004.9 11.6 9.3
2015-Jul-28 09:00N 56°24' W 005°30'0 0.0 1004.6 11.0 9.6
2015-Jul-28 07:00N 56°24' W 005°30'0 0.0 1003.9 11.1 9.7
2015-Jul-28 04:00N 56°24' W 005°30'0 0.0 1003.1 10.4 9.3
2015-Jul-28 03:00N 56°24' W 005°30'0 0.0 1002.9 11.210.1
2015-Jul-28 02:00N 56°24' W 005°30'0 0.0 1002.9 11.310.0
2015-Jul-28 01:00N 56°24' W 005°30'0 0.0 1002.8 11.410.0
2015-Jul-27 20:00N 56°24' W 005°30'0 0.0 1001.9 13.610.6
2015-Jul-27 17:00N 56°24' W 005°30'0 0.0 1001.0 13.4 9.5
2015-Jul-27 14:00N 56°24' W 005°30'0 0.0 1000.6 13.1 8.5
2015-Jul-27 12:00N 56°24' W 005°30'0 0.0 1000.1 13.3 7.7
2015-Jul-27 08:00N 56°24' W 005°30'0 0.0 999.0 11.5 7.5
2015-Jul-27 05:00N 56°24' W 005°30'0 0.0 997.9 11.2 7.6
2015-Jul-27 03:00N 56°24' W 005°30'0 0.0 997.2 12.0 8.9
2015-Jul-26 23:00N 56°24' W 005°30'0 0.0 997.4 11.5 8.9
2015-Jul-26 22:00N 56°24' W 005°30'0 0.0 997.6 11.7 8.5
2015-Jul-26 21:00N 56°24' W 005°30'0 0.0 997.6 11.8 8.3
2015-Jul-26 20:00N 56°24' W 005°30'0 0.0 998.1 12.1 9.0
2015-Jul-26 19:00N 56°24' W 005°30'0 0.0 998.5 12.3 9.4
2015-Jul-26 18:00N 56°24' W 005°30'0 0.0 998.6 13.2 9.0
2015-Jul-26 17:00N 56°24' W 005°30'0 0.0 998.7 13.8 9.3
2015-Jul-26 15:00N 56°24' W 005°30'0 0.0 999.4 13.6 8.8
2015-Jul-26 14:00N 56°24' W 005°30'0 0.0 1000.2 14.9 7.5
2015-Jul-26 13:00N 56°24' W 005°30'0 0.0 1001.3 15.2 7.0
2015-Jul-26 12:00N 56°24' W 005°30'0 0.0 1002.5 14.7 7.0
2015-Jul-26 11:00N 56°24' W 005°30'0 0.0 1003.1 14.4 7.0
2015-Jul-26 10:00N 56°24' W 005°30'9 8.9 1003.6 13.5 7.3
2015-Jul-26 09:00N 56°30' W 005°42'15 7.3 1004.2 13.2 7.4
2015-Jul-26 07:00N 56°36' W 006°06'0 0.0 1006.4 11.6 8.2
2015-Jul-26 06:00N 56°36' W 006°06'0 0.0 1007.5 11.2 8.3
2015-Jul-26 05:00N 56°36' W 006°06'0 0.0 1008.2 10.2 8.4
2015-Jul-26 04:00N 56°36' W 006°06'0 0.0 1008.8 9.3 7.6
2015-Jul-26 03:00N 56°36' W 006°06'0 0.0 1009.6 9.1 7.4
2015-Jul-26 02:00N 56°36' W 006°06'0 0.0 1010.5 9.7 7.9
2015-Jul-26 01:00N 56°36' W 006°06'0 0.0 1011.3 10.2 8.1
2015-Jul-25 23:00N 56°36' W 006°06'0 0.0 1013.0 11.0 8.7
2015-Jul-25 22:00N 56°36' W 006°06'29 7.3 1013.6 11.9 8.7
2015-Jul-25 18:00N 56°54' W 006°48'1211.5 1014.6 14.0 8.6
2015-Jul-25 17:00N 57°00' W 007°06'32 6.3 1015.0 15.7 9.7
2015-Jul-25 12:00N 57°18' W 007°54'6 6.0 1015.4 12.1 8.7
2015-Jul-25 11:00N 57°24' W 007°54'1212.4 1015.4 12.0 9.0
2015-Jul-25 10:00N 57°36' W 007°48'1212.4 1015.4 11.8 8.6
2015-Jul-25 09:00N 57°48' W 007°42'9 8.8 1015.2 11.6 8.8
2015-Jul-25 08:00N 57°54' W 007°30'7 6.8 1015.0 11.5 9.1
2015-Jul-25 07:00N 58°00' W 007°24'1413.6 1014.9 11.3 8.8
2015-Jul-25 06:00N 58°12' W 007°12'3110.3 1014.8 11.6 8.0
2015-Jul-25 03:00N 58°30' W 006°24'5010.1 1014.2 11.3 7.9
2015-Jul-24 22:00N 59°00' W 005°06'2211.0 1013.8 11.2 7.7
2015-Jul-24 20:00N 59°12' W 004°30'135 5.2 1013.0 11.7 7.9
2015-Jul-23 18:00N 60°36' W 001°00'0 0.0 1001.6 11.2 9.3
2015-Jul-23 16:00N 60°36' W 001°00'0 0.0 1003.0 11.5 9.3
2015-Jul-23 15:00N 60°36' W 001°00'0 0.0 1003.8 10.9 9.1
2015-Jul-23 14:00N 60°36' W 001°00'0 0.0 1003.9 11.6 9.0
2015-Jul-23 13:00N 60°36' W 001°00'18 9.1 1004.1 12.0 9.3
2015-Jul-23 11:00N 60°18' W 001°06'6 6.0 1004.8 11.5 9.2
2015-Jul-23 10:00N 60°12' W 001°06'0 0.0 1005.2 11.6 9.1
2015-Jul-23 09:00N 60°12' W 001°06'7 2.2 1004.9 12.5 9.2
2015-Jul-23 06:00N 60°06' W 001°00'13 6.7 1005.7 11.3 9.0
2015-Jul-23 04:00N 59°54' W 001°12'22 7.2 1006.1 11.1 9.8
2015-Jul-23 01:00N 59°42' W 001°48'41 8.2 1006.8 11.0 9.7
2015-Jul-22 20:00N 59°18' W 002°54'0 0.0 1007.7 11.7 9.1
2015-Jul-22 19:00N 59°18' W 002°54'9 2.3 1008.0 13.8 9.2
2015-Jul-22 15:00N 59°18' W 003°12'1313.5 1008.2 13.8 9.3
2015-Jul-22 14:00N 59°06' W 003°24'12 4.1 1007.9 13.5 8.8
2015-Jul-22 11:00N 58°54' W 003°30'1212.0 1008.3 13.6 9.4
2015-Jul-22 10:00N 58°42' W 003°30'6 1.5 1008.0 13.1 7.7
2015-Jul-22 06:00N 58°36' W 003°30'0 0.0 1008.1 9.7 7.0
2015-Jul-22 03:00N 58°36' W 003°30'0 0.0 1007.6 6.5 4.8
2015-Jul-22 00:00N 58°36' W 003°30'0 0.0 1006.8 9.3 7.0
2015-Jul-21 23:00N 58°36' W 003°30'0 0.0 1006.4 10.9 8.4
2015-Jul-21 22:00N 58°36' W 003°30'0 0.0 1006.0 11.1 8.5
2015-Jul-21 20:00N 58°36' W 003°30'30 7.5 1005.3 11.8 8.9
2015-Jul-21 16:00N 59°06' W 003°24'1111.0 1000.2 11.610.9
2015-Jul-21 15:00N 59°12' W 003°06'9 9.2 999.4 11.910.8
2015-Jul-21 14:00N 59°12' W 002°48'9 2.9 999.4 12.811.2
2015-Jul-21 11:00N 59°18' W 002°36'3 3.1 998.1 12.811.4
2015-Jul-21 10:00N 59°18' W 002°30'9 4.3 998.0 12.511.4
2015-Jul-21 08:00N 59°12' W 002°42'15 5.0 997.3 11.410.8
2015-Jul-21 05:00N 59°00' W 003°00'0 0.0 996.4 9.7 9.0
2015-Jul-21 02:00N 59°00' W 003°00'0 0.0 996.3 11.610.8
2015-Jul-21 01:00N 59°00' W 003°00'0 0.0 996.6 11.410.6
2015-Jul-21 00:00N 59°00' W 003°00'0 0.0 997.0 11.410.5
2015-Jul-20 23:00N 59°00' W 003°00'0 0.0 997.8 11.410.5
2015-Jul-20 21:00N 59°00' W 003°00'0 0.0 999.3 11.710.6
2015-Jul-20 20:00N 59°00' W 003°00'0 0.0 1000.1 11.810.6
2015-Jul-20 19:00N 59°00' W 003°00'0 0.0 1001.1 11.810.3
2015-Jul-20 18:00N 59°00' W 003°00'0 0.0 1001.9 11.810.4
2015-Jul-20 17:00N 59°00' W 003°00'0 0.0 1002.8 11.910.3
2015-Jul-20 16:00N 59°00' W 003°00'0 0.0 1003.8 11.510.0
2015-Jul-20 15:00N 59°00' W 003°00'0 0.0 1004.8 11.7 9.7
2015-Jul-20 14:00N 59°00' W 003°00'6 3.0 1005.5 11.5 9.0
2015-Jul-20 12:00N 59°06' W 003°00'0 0.0 1006.5 10.4 7.9
2015-Jul-20 11:00N 59°06' W 003°00'6 6.0 1007.2 11.1 6.9
2015-Jul-20 10:00N 59°00' W 003°00'0 0.0 1007.9 11.5 7.4
2015-Jul-20 09:00N 59°00' W 003°00'0 0.0 1008.0 11.0 6.4
2015-Jul-20 08:00N 59°00' W 003°00'0 0.0 1008.6 11.2 5.3
2015-Jul-20 07:00N 59°00' W 003°00'0 0.0 1008.7 10.7 7.2
2015-Jul-20 06:00N 59°00' W 003°00'0 0.0 1008.9 10.0 7.7
2015-Jul-20 05:00N 59°00' W 003°00'0 0.0 1009.0 8.6 6.6
2015-Jul-20 03:00N 59°00' W 003°00'0 0.0 1008.9 8.8 7.0
2015-Jul-20 02:00N 59°00' W 003°00'0 0.0 1009.1 8.9 6.9
2015-Jul-20 00:00N 59°00' W 003°00'0 0.0 1009.1 8.7 6.4
2015-Jul-19 22:00N 59°00' W 003°00'0 0.0 1008.9 10.3 7.4
2015-Jul-19 19:00N 59°00' W 003°00'0 0.0 1008.1 13.6 7.7
2015-Jul-19 18:00N 59°00' W 003°00'9 1.7 1007.7 12.0 7.5
2015-Jul-19 13:00N 59°06' W 002°48'6 6.2 1005.8 10.7 8.4
2015-Jul-19 12:00N 59°06' W 002°36'6 2.0 1005.1 12.6 9.4
2015-Jul-19 09:00N 59°12' W 002°36'1111.0 1004.4 10.8 9.4
2015-Jul-19 08:00N 59°06' W 002°54'7 2.2 1003.9 10.7 9.2
2015-Jul-19 05:00N 59°00' W 003°00'0 0.0 1004.0 10.6 9.3
2015-Jul-19 04:00N 59°00' W 003°00'0 0.0 1003.5 11.0 9.3
2015-Jul-19 01:00N 59°00' W 003°00'0 0.0 1003.9 10.9 9.6
2015-Jul-19 00:00N 59°00' W 003°00'0 0.0 1003.7 11.1 9.8
2015-Jul-18 20:00N 59°00' W 003°00'   1001.6 11.2 9.3

Dump ship's entire track history